createdAt,value
2023-05-09T00:00:12.542Z,99420.59
2023-05-09T00:04:17.675Z,99426.47
2023-05-09T00:08:27.886Z,99421.13
2023-05-09T00:12:31.095Z,99410.25
2023-05-09T00:16:34.085Z,99419.78
2023-05-09T00:20:38.417Z,99385.50
2023-05-09T00:24:41.640Z,99397.72
2023-05-09T00:28:44.652Z,99405.94
2023-05-09T00:32:47.526Z,99403.56
2023-05-09T00:36:51.815Z,99414.75
2023-05-09T00:40:54.546Z,99413.69
2023-05-09T00:44:57.350Z,99418.44
2023-05-09T00:49:00.158Z,99405.13
2023-05-09T00:53:04.778Z,99408.31
2023-05-09T00:57:07.834Z,99374.28
2023-05-09T01:01:10.945Z,99377.50
2023-05-09T01:05:14.583Z,99390.22
2023-05-09T01:09:24.042Z,99380.38
2023-05-09T01:13:33.753Z,99388.38
2023-05-09T01:17:41.645Z,99382.22
2023-05-09T01:21:45.992Z,99367.09
2023-05-09T01:25:57.044Z,99376.41
2023-05-09T01:30:02.496Z,99358.50
2023-05-09T01:34:06.595Z,99351.66
2023-05-09T01:38:14.158Z,99369.22
2023-05-09T01:42:18.474Z,99372.41
2023-05-09T01:46:23.527Z,99363.81
2023-05-09T01:50:26.557Z,99351.31
2023-05-09T01:54:29.983Z,99345.63
2023-05-09T01:58:43.470Z,99357.13
2023-05-09T02:02:48.034Z,99346.56
2023-05-09T02:06:52.440Z,99342.97
2023-05-09T02:10:55.246Z,99350.13
2023-05-09T02:14:58.270Z,99344.28
2023-05-09T02:19:02.584Z,99340.44
2023-05-09T02:23:05.680Z,99328.47
2023-05-09T02:27:08.985Z,99329.81
2023-05-09T02:31:26.151Z,99339.66
2023-05-09T02:35:30.406Z,99343.13
2023-05-09T02:39:33.339Z,99337.00
2023-05-09T02:43:36.054Z,99342.56
2023-05-09T02:47:39.367Z,99338.88
2023-05-09T02:51:43.436Z,99347.41
2023-05-09T02:55:46.255Z,99348.47
2023-05-09T02:59:49.353Z,99346.63
2023-05-09T03:03:52.441Z,99323.72
2023-05-09T03:07:56.713Z,99334.66
2023-05-09T03:11:59.565Z,99334.13
2023-05-09T03:16:02.458Z,99341.31
2023-05-09T03:20:07.763Z,99328.25
2023-05-09T03:24:12.079Z,99331.72
2023-05-09T03:28:22.019Z,99331.41
2023-05-09T03:32:24.913Z,99335.38
2023-05-09T03:36:27.603Z,99327.03
2023-05-09T03:40:34.269Z,99337.38
2023-05-09T03:44:37.083Z,99335.75
2023-05-09T03:48:39.892Z,99319.50
2023-05-09T03:52:42.582Z,99289.69
2023-05-09T03:56:46.783Z,99324.34
2023-05-09T04:00:50.354Z,99318.47
2023-05-09T04:05:21.058Z,99318.50
2023-05-09T04:09:23.792Z,99303.31
2023-05-09T04:13:28.228Z,99304.41
2023-05-09T04:17:31.596Z,99304.38
2023-05-09T04:21:34.607Z,99284.38
2023-05-09T04:25:37.431Z,99289.44
2023-05-09T04:29:42.095Z,99291.63
2023-05-09T04:33:52.236Z,99286.13
2023-05-09T04:37:55.061Z,99278.41
2023-05-09T04:41:58.106Z,99273.31
2023-05-09T04:46:02.649Z,99282.94
2023-05-09T04:50:12.194Z,99280.31
2023-05-09T04:54:14.928Z,99270.72
2023-05-09T04:58:17.774Z,99286.13
2023-05-09T05:02:22.710Z,99279.56
2023-05-09T05:06:25.642Z,99278.16
2023-05-09T05:10:28.437Z,99268.69
2023-05-09T05:14:31.467Z,99262.56
2023-05-09T05:18:35.696Z,99233.78
2023-05-09T05:22:38.730Z,99252.75
2023-05-09T05:26:41.759Z,99251.94
2023-05-09T05:30:44.908Z,99266.28
2023-05-09T05:35:17.974Z,99267.38
2023-05-09T05:39:21.080Z,99252.22
2023-05-09T05:43:23.914Z,99261.81
2023-05-09T05:47:27.078Z,99257.03
2023-05-09T05:51:31.697Z,99271.09
2023-05-09T05:55:34.601Z,99252.72
2023-05-09T05:59:37.948Z,99261.78
2023-05-09T06:03:40.769Z,99255.91
2023-05-09T06:07:45.584Z,99248.19
2023-05-09T06:11:48.549Z,99250.31
2023-05-09T06:16:07.783Z,99244.50
2023-05-09T06:20:18.230Z,99241.00
2023-05-09T06:24:34.523Z,99232.50
2023-05-09T06:28:38.744Z,99226.03
2023-05-09T06:32:41.684Z,99221.22
2023-05-09T06:36:44.926Z,99223.84
2023-05-09T06:40:48.959Z,99218.00
2023-05-09T06:44:51.836Z,99199.81
2023-05-09T06:48:54.524Z,99202.72
2023-05-09T06:52:57.210Z,99203.66
2023-05-09T06:57:01.415Z,99205.66
2023-05-09T07:01:04.511Z,99201.16
2023-05-09T07:05:08.066Z,99193.53
2023-05-09T07:09:11.425Z,99189.84
2023-05-09T07:13:15.955Z,99184.81
2023-05-09T07:17:23.494Z,99183.72
2023-05-09T07:21:27.229Z,99178.03
2023-05-09T07:25:29.929Z,99165.00
2023-05-09T07:29:34.716Z,99159.31
2023-05-09T07:33:37.727Z,99145.38
2023-05-09T07:37:40.694Z,99159.22
2023-05-09T07:41:44.233Z,99126.03
2023-05-09T07:45:48.530Z,99147.63
2023-05-09T07:49:51.381Z,99135.25
2023-05-09T07:53:56.257Z,99140.84
2023-05-09T07:57:59.608Z,99134.75
2023-05-09T08:02:03.918Z,99101.13
2023-05-09T08:06:07.054Z,99104.09
2023-05-09T08:10:11.276Z,99122.16
2023-05-09T08:14:15.668Z,99113.47
2023-05-09T08:18:20.069Z,99105.25
2023-05-09T08:22:24.777Z,99085.84
2023-05-09T08:26:27.926Z,99076.63
2023-05-09T08:30:31.111Z,99090.75
2023-05-09T08:34:35.568Z,99084.22
2023-05-09T08:38:40.581Z,99068.44
2023-05-09T08:42:46.062Z,99072.53
2023-05-09T08:46:50.334Z,99065.06
2023-05-09T08:50:54.719Z,99062.25
2023-05-09T08:54:57.959Z,99060.38
2023-05-09T08:59:01.234Z,99053.72
2023-05-09T09:03:04.629Z,99040.41
2023-05-09T09:07:09.506Z,99034.97
2023-05-09T09:11:13.749Z,99022.75
2023-05-09T09:15:18.940Z,99024.66
2023-05-09T09:19:23.839Z,99032.34
2023-05-09T09:23:28.673Z,99025.84
2023-05-09T09:27:32.913Z,99009.81
2023-05-09T09:31:35.977Z,99005.25
2023-05-09T09:35:39.932Z,98990.91
2023-05-09T09:39:55.030Z,98992.59
2023-05-09T09:43:58.869Z,98991.47
2023-05-09T09:48:07.892Z,98985.34
2023-05-09T09:52:11.022Z,98976.03
2023-05-09T09:56:15.632Z,98973.38
2023-05-09T10:00:21.315Z,98960.38
2023-05-09T10:04:24.869Z,98968.22
2023-05-09T10:08:27.708Z,98949.09
2023-05-09T10:12:34.359Z,98952.75
2023-05-09T10:16:51.114Z,98928.88
2023-05-09T10:20:55.170Z,98939.47
2023-05-09T10:25:04.426Z,98920.78
2023-05-09T10:29:12.039Z,98930.00
2023-05-09T10:33:17.369Z,98919.25
2023-05-09T10:37:22.345Z,98896.38
2023-05-09T10:41:25.764Z,98897.91
2023-05-09T10:45:30.295Z,98881.97
2023-05-09T10:49:55.001Z,98886.84
2023-05-09T10:53:58.016Z,98889.97
2023-05-09T10:58:19.708Z,98878.22
2023-05-09T11:02:29.507Z,98855.09
2023-05-09T11:06:44.570Z,98846.88
2023-05-09T11:10:48.088Z,98862.44
2023-05-09T11:14:52.248Z,98852.44
2023-05-09T11:18:57.379Z,98823.19
2023-05-09T11:23:00.611Z,98830.47
2023-05-09T11:27:15.606Z,98817.59
2023-05-09T11:31:19.809Z,98815.63
2023-05-09T11:35:26.839Z,98813.59
2023-05-09T11:39:31.339Z,98797.75
2023-05-09T11:43:34.234Z,98786.25
2023-05-09T11:47:37.743Z,98782.59
2023-05-09T11:51:42.977Z,98764.13
2023-05-09T11:55:45.995Z,98770.34
2023-05-09T11:59:49.663Z,98769.03
2023-05-09T12:03:53.167Z,98752.28
2023-05-09T12:07:58.597Z,98723.94
2023-05-09T12:12:02.299Z,98740.16
2023-05-09T12:16:06.467Z,98719.94
2023-05-09T12:20:10.629Z,98723.34
2023-05-09T12:24:15.362Z,98724.38
2023-05-09T12:28:19.073Z,98698.94
2023-05-09T12:32:22.434Z,98710.44
2023-05-09T12:36:26.545Z,98679.06
2023-05-09T12:40:32.082Z,98700.22
2023-05-09T12:44:35.062Z,98693.75
2023-05-09T12:48:39.271Z,98688.09
2023-05-09T12:52:54.697Z,98673.88
2023-05-09T12:57:22.807Z,98668.03
2023-05-09T13:01:29.554Z,98672.44
2023-05-09T13:05:33.886Z,98659.34
2023-05-09T13:09:37.083Z,98669.94
2023-05-09T13:13:41.804Z,98683.00
2023-05-09T13:17:44.877Z,98679.56
2023-05-09T13:21:47.987Z,98629.22
2023-05-09T13:25:51.543Z,98643.72
2023-05-09T13:29:57.662Z,98652.25
2023-05-09T13:34:00.909Z,98651.38
2023-05-09T13:38:04.212Z,98638.13
2023-05-09T13:42:07.378Z,98643.28
2023-05-09T13:46:12.040Z,98660.09
2023-05-09T13:50:15.486Z,98652.44
2023-05-09T13:54:19.850Z,98660.13
2023-05-09T13:58:23.042Z,98672.94
2023-05-09T14:02:27.617Z,98637.06
2023-05-09T14:06:30.761Z,98651.63
2023-05-09T14:10:33.645Z,98643.31
2023-05-09T14:14:37.950Z,98636.63
2023-05-09T14:18:42.603Z,98645.41
2023-05-09T14:22:45.637Z,98609.19
2023-05-09T14:26:48.683Z,98611.81
2023-05-09T14:30:53.266Z,98605.19
2023-05-09T14:34:58.198Z,98612.97
2023-05-09T14:39:03.343Z,98621.03
2023-05-09T14:43:06.992Z,98590.63
2023-05-09T14:47:10.752Z,98599.72
2023-05-09T14:51:15.495Z,98596.34
2023-05-09T14:55:31.427Z,98616.03
2023-05-09T14:59:36.847Z,98627.69
2023-05-09T15:03:40.295Z,98609.78
2023-05-09T15:07:44.300Z,98614.22
2023-05-09T15:11:49.050Z,98605.84
2023-05-09T15:15:53.204Z,98612.47
2023-05-09T15:19:56.148Z,98595.31
2023-05-09T15:24:00.555Z,98573.41
2023-05-09T15:28:03.554Z,98593.34
2023-05-09T15:32:07.085Z,98612.00
2023-05-09T15:36:10.477Z,98570.72
2023-05-09T15:40:15.604Z,98580.72
2023-05-09T15:44:19.041Z,98581.41
2023-05-09T15:48:22.292Z,98589.81
2023-05-09T15:52:25.286Z,98584.84
2023-05-09T15:56:30.157Z,98581.50
2023-05-09T16:00:41.278Z,98573.78
2023-05-09T16:04:44.299Z,98567.75
2023-05-09T16:08:47.739Z,98566.06
2023-05-09T16:12:51.972Z,98561.72
2023-05-09T16:17:16.646Z,98560.25
2023-05-09T16:21:20.055Z,98556.09
2023-05-09T16:25:23.692Z,98543.06
2023-05-09T16:29:38.663Z,98539.13
2023-05-09T16:33:44.087Z,98543.25
2023-05-09T16:37:47.881Z,98538.72
2023-05-09T16:41:50.675Z,98506.59
2023-05-09T16:45:55.065Z,98515.66
2023-05-09T16:50:28.953Z,98533.09
2023-05-09T16:54:32.262Z,98511.56
2023-05-09T16:58:43.152Z,98524.94
2023-05-09T17:02:47.437Z,98517.22
2023-05-09T17:06:51.719Z,98521.63
2023-05-09T17:10:54.512Z,98514.31
2023-05-09T17:14:57.390Z,98527.41
2023-05-09T17:19:01.827Z,98510.34
2023-05-09T17:23:05.361Z,98517.94
2023-05-09T17:27:30.730Z,98514.72
2023-05-09T17:31:35.309Z,98521.38
2023-05-09T17:35:39.578Z,98506.22
2023-05-09T17:40:14.909Z,98506.69
2023-05-09T17:44:18.718Z,98518.44
2023-05-09T17:48:23.943Z,98503.09
2023-05-09T17:52:29.561Z,98519.56
2023-05-09T17:56:32.424Z,98513.00
2023-05-09T18:00:35.969Z,98514.69
2023-05-09T18:04:39.554Z,98502.59
2023-05-09T18:08:43.605Z,98519.50
2023-05-09T18:12:55.572Z,98512.72
2023-05-09T18:16:58.408Z,98516.09
2023-05-09T18:21:01.172Z,98512.59
2023-05-09T18:25:06.088Z,98519.22
2023-05-09T18:29:09.549Z,98514.75
2023-05-09T18:33:12.930Z,98517.72
2023-05-09T18:37:16.952Z,98523.00
2023-05-09T18:41:22.059Z,98510.22
2023-05-09T18:45:25.010Z,98517.00
2023-05-09T18:49:44.084Z,98527.53
2023-05-09T18:53:48.090Z,98524.81
2023-05-09T18:57:52.413Z,98524.34
2023-05-09T19:01:55.274Z,98520.13
2023-05-09T19:05:59.435Z,98524.88
2023-05-09T19:10:03.907Z,98524.41
2023-05-09T19:14:10.264Z,98530.84
2023-05-09T19:18:14.215Z,98536.47
2023-05-09T19:22:17.450Z,98539.22
2023-05-09T19:26:37.897Z,98529.53
2023-05-09T19:30:42.422Z,98544.63
2023-05-09T19:34:54.221Z,98545.53
2023-05-09T19:38:57.090Z,98543.97
2023-05-09T19:43:01.499Z,98546.38
2023-05-09T19:47:06.200Z,98557.44
2023-05-09T19:51:16.954Z,98554.66
2023-05-09T19:55:27.921Z,98551.38
2023-05-09T19:59:45.517Z,98561.28
2023-05-09T20:03:52.212Z,98572.41
2023-05-09T20:07:58.255Z,98541.19
2023-05-09T20:12:04.771Z,98555.31
2023-05-09T20:16:07.733Z,98541.53
2023-05-09T20:20:17.240Z,98560.28
2023-05-09T20:24:20.096Z,98578.34
2023-05-09T20:28:23.022Z,98569.03
2023-05-09T20:32:26.383Z,98556.34
2023-05-09T20:36:30.661Z,98561.97
2023-05-09T20:40:33.505Z,98563.59
2023-05-09T20:44:37.674Z,98578.13
2023-05-09T20:48:40.598Z,98578.19
2023-05-09T20:52:44.740Z,98575.56
2023-05-09T20:56:48.082Z,98568.16
2023-05-09T21:01:12.773Z,98588.63
2023-05-09T21:05:15.669Z,98579.03
2023-05-09T21:09:20.433Z,98574.56
2023-05-09T21:13:23.488Z,98578.63
2023-05-09T21:17:26.680Z,98588.78
2023-05-09T21:21:29.635Z,98579.81
2023-05-09T21:25:33.939Z,98569.81
2023-05-09T21:30:02.468Z,98592.78
2023-05-09T21:34:10.045Z,98574.81
2023-05-09T21:38:13.264Z,98570.09
2023-05-09T21:42:17.481Z,98582.03
2023-05-09T21:46:20.755Z,98577.97
2023-05-09T21:50:33.329Z,98585.66
2023-05-09T21:54:36.153Z,98557.13
2023-05-09T21:58:40.416Z,98582.19
2023-05-09T22:02:44.232Z,98585.94
2023-05-09T22:06:47.137Z,98586.50
2023-05-09T22:10:50.054Z,98610.31
2023-05-09T22:14:56.706Z,98588.09
2023-05-09T22:18:59.917Z,98601.31
2023-05-09T22:23:03.084Z,98594.41
2023-05-09T22:27:06.453Z,98600.22
2023-05-09T22:31:10.678Z,98607.16
2023-05-09T22:35:13.547Z,98601.84
2023-05-09T22:39:16.521Z,98601.56
2023-05-09T22:43:20.161Z,98598.69
2023-05-09T22:47:24.661Z,98609.09
2023-05-09T22:51:27.758Z,98602.19
2023-05-09T22:55:30.850Z,98599.56
2023-05-09T22:59:33.546Z,98605.59
2023-05-09T23:03:37.965Z,98613.31
2023-05-09T23:07:40.624Z,98605.41
2023-05-09T23:11:43.299Z,98622.06
2023-05-09T23:15:46.076Z,98618.09
2023-05-09T23:19:50.277Z,98624.72
2023-05-09T23:23:53.032Z,98618.13
2023-05-09T23:27:56.050Z,98620.25
2023-05-09T23:31:58.693Z,98616.25
2023-05-09T23:36:02.973Z,98626.59
2023-05-09T23:40:06.484Z,98570.81
2023-05-09T23:44:09.148Z,98621.31
2023-05-09T23:48:11.822Z,98619.97
2023-05-09T23:52:15.889Z,98628.19
2023-05-09T23:56:18.690Z,98623.69
